Terminal Aerodrome Forecast
Issued by NWS

Home | Current Version | Previous Version | Text Only | Print | Product List | Glossary On
Versions: 1 2 3 4 5 6 7 8 9 10 11 12 13 14
151
FTUS46 KSGX 241120
TAFONT
TAF
KONT 241120Z 2412/2518 VRB04KT P6SM SCT150
     FM242000 25010G18KT P6SM SCT080 SCT100
     FM250400 VRB04KT P6SM SCT150=

USA.gov is the U.S. government's official web portal to all federal, state and local government web resources and services.